Kirkville, IA

20:36 CST le 29 janvier 2015 (GMT -0600)
Ottumwa Industrial | Change Station
CLOSE
Current Station
Aéroport
Location: Ottumwa,
Altitude: 843 ft
Stations météo à proximité

Alt. 843 ft 41.11 °N, 92.45 °W | Updated 43 minutes ago

Couvert
Couvert
29 ° F
Paraît 16 ° F
N
18
Vent Variable Vent de NO
Gusts 26 mph

Aujourd'hui
Haut(e) -- | Bas -- ° F
--% Risque de précip.
Hier
Haut(e) -- | Bas -- ° F
Precip. -- pouce
7:23 AM 5:22 PM
Lune gibbeuse croissante, 79% visible
Pression 30.45 pouce
Visibilité 10.0 Miles terrestres
Nuages Couvert 2500 ft
Refroidissement éolien 16 ° F
Point de rosée 20 ° F
Humidité 69%
Précipitations 0.00 pouce
Profondeur de la couche neigeuse Non disponible.
UV 0 sur 12
Pollen 1.30 sur 12
Qualité de l'air Non disponible.
Flu Activity Non disponible.
METAR KOTM 300153Z AUTO 31016G23KT 10SM OVC025 M02/M07 A3042 RMK AO2 PK WND 32027/0131 SLP312 T10171067

More Conditions Fewer Conditions

Pression 30.45 pouce
Visibilité 10.0 Miles terrestres
Nuages Couvert 2500 ft
Refroidissement éolien 16 ° F
Point de rosée 20 ° F
Humidité 69%
Précipitations 0.00 pouce
Profondeur de la couche neigeuse Non disponible.
UV 0 sur 12
Pollen 1.30 sur 12
Qualité de l'air Non disponible.
Flu Activity Non disponible.
METAR KOTM 300153Z AUTO 31016G23KT 10SM OVC025 M02/M07 A3042 RMK AO2 PK WND 32027/0131 SLP312 T10171067

More Conditions Fewer Conditions

10-Day Weather Forecast

Almanac

Astronomie

Jan. 29, 2015 Lever Coucher
Temps réel
Crépuscule civil
Crépuscule nautique
Crépuscule astronomique
Lune
Durée de lumière visible
Longueur du jour
Tomorrow will be .
, % of the Moon is Illuminated

Extrêmes aujourd'hui

State Highs State Lows

Community

WunderPhotos

Upload Photos

1,791,695 Photos téléchargées !

WunderBlogs® & News

Nearby

Qualité de l'air

  Qualité de l'air Indice de la qualité de l'air Polluant
Not available.

Épaisseur de neige

Station Depth Altitude

Activité sismique

Ville Distance Mag. Time & Date
Minimum magnitude displayed is 2.5.

Températures des eaux côtières

Lieu Température

Stations météo à proximité